Time;durP1;ratioP1;P1;durP2;ratioP2;P2;SDS_P1;SDS_P2;PMS_P1;PMS_P2;Temp;Humidity;BMP_temperature;BMP_pressure;BME280_temperature;BME280_humidity;BME280_pressure;Samples;Min_cycle;Max_cycle;Signal;HPM_P1;HPM_P2
2022/02/17 00:00:33;;;;;;;0.40;0.20;;;;;;;13.44;93.44;97650.88;5013267;28;20464;-72
2022/02/17 00:02:59;;;;;;;0.40;0.30;;;;;;;13.45;93.45;97649.69;5013388;28;20464;-73
2022/02/17 00:05:26;;;;;;;0.40;0.30;;;;;;;13.52;93.54;97627.94;5013349;28;20488;-73
2022/02/17 00:07:56;;;;;;;0.40;0.30;;;;;;;13.66;93.01;97621.69;5013368;28;20448;-72
2022/02/17 00:10:25;;;;;;;0.40;0.20;;;;;;;13.67;92.75;97609.63;5013062;28;20448;-72
2022/02/17 00:12:51;;;;;;;0.40;0.30;;;;;;;13.66;92.56;97627.88;5013323;28;20564;-71
2022/02/17 00:15:18;;;;;;;0.40;0.30;;;;;;;13.64;92.92;97632.97;5016394;28;20847;-72
2022/02/17 00:17:45;;;;;;;0.40;0.20;;;;;;;13.66;92.79;97619.72;5017032;28;20847;-72
2022/02/17 00:20:12;;;;;;;0.40;0.30;;;;;;;13.65;93.05;97623.63;5016973;28;20965;-72
2022/02/17 00:22:39;;;;;;;0.40;0.30;;;;;;;13.67;93.18;97636.81;5016854;28;20522;-71
2022/02/17 00:25:08;;;;;;;0.40;0.27;;;;;;;13.60;93.92;97629.47;5017200;28;20541;-72
2022/02/17 00:27:35;;;;;;;0.40;0.30;;;;;;;13.50;95.03;97609.31;5017168;28;20789;-72
2022/02/17 00:30:02;;;;;;;0.40;0.30;;;;;;;13.47;95.50;97612.81;5017060;28;20448;-72
2022/02/17 00:32:28;;;;;;;0.40;0.30;;;;;;;13.46;95.97;97596.88;5016997;28;20463;-73
2022/02/17 00:34:55;;;;;;;0.40;0.30;;;;;;;13.44;96.00;97593.78;5016978;28;20484;-71
2022/02/17 00:37:21;;;;;;;0.40;0.30;;;;;;;13.43;96.18;97603.09;5016986;28;20836;-72
2022/02/17 00:39:47;;;;;;;0.40;0.30;;;;;;;13.45;96.21;97620.56;5016885;28;20444;-72
2022/02/17 00:42:16;;;;;;;0.40;0.30;;;;;;;13.42;96.41;97610.50;5016805;28;20463;-72
2022/02/17 00:44:42;;;;;;;0.40;0.30;;;;;;;13.42;96.52;97579.81;5016515;28;20487;-72
2022/02/17 00:47:11;;;;;;;0.40;0.30;;;;;;;13.46;96.58;97586.00;5016734;28;20542;-72
2022/02/17 00:49:38;;;;;;;0.40;0.20;;;;;;;13.50;96.80;97548.69;5016713;28;20456;-72
2022/02/17 00:52:05;;;;;;;0.40;0.30;;;;;;;13.45;97.42;97579.78;5016664;28;20468;-72
2022/02/17 00:54:31;;;;;;;0.40;0.30;;;;;;;13.48;97.73;97587.16;5016610;28;20856;-72
2022/02/17 00:56:58;;;;;;;0.40;0.30;;;;;;;13.35;100.00;97592.25;5016562;28;20444;-72
2022/02/17 00:59:26;;;;;;;0.40;0.30;;;;;;;13.06;100.00;97632.28;5016567;28;20448;-72
2022/02/17 01:01:53;;;;;;;0.40;0.30;;;;;;;12.76;100.00;97776.63;5016332;28;20556;-73
2022/02/17 01:04:19;;;;;;;0.40;0.30;;;;;;;12.27;100.00;97862.16;5016694;28;20498;-77
2022/02/17 01:06:46;;;;;;;0.40;0.30;;;;;;;11.16;100.00;97806.28;5017045;28;20492;-75
2022/02/17 01:09:14;;;;;;;0.40;0.30;;;;;;;10.49;100.00;97814.44;5016234;28;20858;-76
2022/02/17 01:11:41;;;;;;;0.40;0.30;;;;;;;9.86;100.00;97841.03;5017831;28;20527;-78
2022/02/17 01:14:08;;;;;;;0.40;0.30;;;;;;;9.50;100.00;97847.81;5017733;28;20468;-77
2022/02/17 01:16:37;;;;;;;0.40;0.30;;;;;;;9.29;100.00;97880.63;5016262;28;20436;-75
2022/02/17 01:19:04;;;;;;;0.40;0.30;;;;;;;9.15;100.00;97879.59;5016160;28;20497;-76
2022/02/17 01:21:31;;;;;;;0.40;0.20;;;;;;;9.04;100.00;97912.59;5016118;28;20451;-76
2022/02/17 01:23:57;;;;;;;0.40;0.30;;;;;;;8.89;100.00;97839.78;5016082;28;20490;-74
2022/02/17 01:26:24;;;;;;;0.40;0.30;;;;;;;8.79;100.00;97846.53;5015364;28;20496;-77
2022/02/17 01:28:50;;;;;;;0.40;0.30;;;;;;;8.72;100.00;97838.28;5017497;28;20448;-77
2022/02/17 01:31:18;;;;;;;0.40;0.30;;;;;;;8.60;100.00;97831.16;5016385;28;20455;-76
2022/02/17 01:33:46;;;;;;;0.40;0.30;;;;;;;8.51;100.00;97825.97;5015785;28;20468;-76
2022/02/17 01:36:13;;;;;;;0.40;0.30;;;;;;;8.43;100.00;97785.72;5015851;28;20809;-75
2022/02/17 01:38:41;;;;;;;0.40;0.30;;;;;;;8.35;100.00;97734.28;5015824;28;20451;-75
2022/02/17 01:41:09;;;;;;;0.40;0.20;;;;;;;8.31;100.00;97746.91;5015458;28;20869;-74
2022/02/17 01:43:37;;;;;;;0.40;0.30;;;;;;;8.29;100.00;97780.78;5015350;28;20471;-73
2022/02/17 01:46:05;;;;;;;0.40;0.20;;;;;;;8.27;100.00;97797.31;5015601;28;20505;-74
2022/02/17 01:48:32;;;;;;;0.40;0.30;;;;;;;8.26;100.00;97794.97;5015609;28;20506;-74
2022/02/17 01:50:59;;;;;;;0.40;0.30;;;;;;;8.25;100.00;97848.13;5015583;28;20483;-74
2022/02/17 01:53:27;;;;;;;0.40;0.30;;;;;;;8.28;100.00;97823.16;5015459;28;20467;-74
2022/02/17 01:55:57;;;;;;;0.40;0.30;;;;;;;8.34;100.00;97829.81;5015165;28;20816;-73
2022/02/17 01:58:24;;;;;;;0.40;0.20;;;;;;;8.39;100.00;97814.53;5015461;28;20487;-74
2022/02/17 02:00:50;;;;;;;0.40;0.30;;;;;;;8.41;100.00;97828.44;5015260;28;20471;-73
2022/02/17 02:03:17;;;;;;;0.40;0.30;;;;;;;8.42;100.00;97817.31;5015307;28;20510;-74
2022/02/17 02:05:43;;;;;;;0.40;0.30;;;;;;;8.44;100.00;97844.69;5014873;28;20526;-73
2022/02/17 02:08:12;;;;;;;0.40;0.30;;;;;;;8.51;100.00;97860.25;5015302;28;20444;-74
2022/02/17 02:10:38;;;;;;;0.40;0.27;;;;;;;8.50;100.00;97845.19;5015290;28;20448;-72
2022/02/17 02:13:05;;;;;;;0.40;0.30;;;;;;;8.53;100.00;97849.88;5015123;28;20464;-73
2022/02/17 02:15:44;;;;;;;0.40;0.30;;;;;;;8.61;100.00;97837.31;5015093;28;20448;-73
2022/02/17 02:18:10;;;;;;;0.40;0.23;;;;;;;8.63;100.00;97851.22;5015120;28;20425;-73
2022/02/17 02:20:43;;;;;;;0.40;0.30;;;;;;;8.63;100.00;97835.03;5014736;28;20886;-70
2022/02/17 02:23:09;;;;;;;0.40;0.30;;;;;;;8.64;100.00;97842.00;5014914;28;20464;-72
2022/02/17 02:25:36;;;;;;;0.40;0.20;;;;;;;8.67;100.00;97830.50;5014627;28;20448;-73
2022/02/17 02:28:02;;;;;;;0.40;0.20;;;;;;;8.62;100.00;97831.56;5015029;28;20484;-72
2022/02/17 02:30:29;;;;;;;0.40;0.30;;;;;;;8.66;100.00;97816.22;5014854;28;20462;-73
2022/02/17 02:32:55;;;;;;;0.40;0.30;;;;;;;8.75;100.00;97797.09;5014742;28;20460;-73
2022/02/17 02:35:21;;;;;;;0.40;0.30;;;;;;;8.69;100.00;97796.63;5014454;28;20455;-73
2022/02/17 02:37:49;;;;;;;0.40;0.20;;;;;;;8.75;100.00;97791.72;5014541;28;20436;-72
2022/02/17 02:40:16;;;;;;;0.40;0.30;;;;;;;8.77;100.00;97792.94;5014612;28;20957;-73
2022/02/17 02:42:43;;;;;;;0.40;0.30;;;;;;;8.80;100.00;97764.44;5014570;28;20460;-75
2022/02/17 02:45:10;;;;;;;0.40;0.30;;;;;;;8.75;100.00;97749.31;5014593;28;20452;-75
2022/02/17 02:47:37;;;;;;;0.40;0.20;;;;;;;8.76;100.00;97750.88;5014669;28;20480;-74
2022/02/17 02:50:05;;;;;;;0.40;0.30;;;;;;;8.77;100.00;97760.53;5014483;28;20448;-73
2022/02/17 02:52:31;;;;;;;0.40;0.23;;;;;;;8.86;100.00;97794.63;5014381;28;20529;-72
2022/02/17 02:54:59;;;;;;;0.40;0.23;;;;;;;8.90;100.00;97806.25;5014387;28;20478;-73
2022/02/17 02:57:25;;;;;;;0.40;0.27;;;;;;;9.01;100.00;97808.00;5014371;28;20474;-72
2022/02/17 02:59:52;;;;;;;0.40;0.30;;;;;;;9.10;100.00;97823.97;5014002;28;20534;-72
2022/02/17 03:02:18;;;;;;;0.40;0.20;;;;;;;9.14;100.00;97799.72;5013848;28;20476;-72
2022/02/17 03:04:45;;;;;;;0.40;0.30;;;;;;;9.19;100.00;97788.63;5013892;28;20460;-72
2022/02/17 03:07:11;;;;;;;0.50;0.50;;;;;;;9.22;98.64;97777.88;5014041;28;20499;-73
2022/02/17 03:09:38;;;;;;;0.40;0.30;;;;;;;9.27;98.88;97776.81;5014165;28;20474;-73
2022/02/17 03:12:06;;;;;;;0.40;0.20;;;;;;;9.31;97.51;97767.63;5014062;28;20537;-72
2022/02/17 03:14:32;;;;;;;0.40;0.23;;;;;;;9.32;96.92;97752.97;5014027;28;20526;-72
2022/02/17 03:16:59;;;;;;;0.40;0.20;;;;;;;9.34;97.33;97766.91;5013763;28;20929;-72
2022/02/17 03:19:25;;;;;;;0.40;0.30;;;;;;;9.32;94.15;97785.38;5013697;28;20949;-72
2022/02/17 03:21:52;;;;;;;0.40;0.30;;;;;;;9.40;92.60;97788.19;5013840;28;20448;-72
2022/02/17 03:24:18;;;;;;;0.40;0.30;;;;;;;9.44;92.30;97778.22;5013938;28;20470;-72
2022/02/17 03:26:45;;;;;;;0.80;0.80;;;;;;;9.53;89.33;97784.16;5013539;28;20847;-73
2022/02/17 03:29:12;;;;;;;0.40;0.30;;;;;;;9.63;88.37;97770.03;5013628;28;20459;-72
2022/02/17 03:31:39;;;;;;;0.40;0.30;;;;;;;9.70;86.29;97778.25;5013521;28;20451;-72
2022/02/17 03:34:06;;;;;;;0.40;0.30;;;;;;;9.72;87.18;97759.72;5013719;28;20460;-72
2022/02/17 03:36:32;;;;;;;0.40;0.20;;;;;;;9.70;86.28;97736.94;5013418;28;20969;-72
2022/02/17 03:38:59;;;;;;;0.40;0.30;;;;;;;9.73;85.79;97731.56;5013741;28;20448;-73
2022/02/17 03:41:25;;;;;;;0.40;0.30;;;;;;;9.72;84.47;97735.41;5013671;28;20448;-72
2022/02/17 03:43:52;;;;;;;0.40;0.30;;;;;;;9.72;84.97;97738.09;5013301;28;21012;-71
2022/02/17 03:46:19;;;;;;;0.40;0.30;;;;;;;9.73;82.31;97728.84;5013541;28;20495;-72
2022/02/17 03:48:46;;;;;;;0.40;0.20;;;;;;;9.73;81.52;97750.47;5012751;28;20824;-70
2022/02/17 03:51:12;;;;;;;0.40;0.30;;;;;;;9.78;80.24;97779.91;5013543;28;20454;-72
2022/02/17 03:53:39;;;;;;;0.40;0.30;;;;;;;9.84;81.47;97750.63;5013284;28;20452;-72
2022/02/17 03:56:05;;;;;;;0.40;0.30;;;;;;;9.79;80.09;97730.09;5013573;28;20494;-71
2022/02/17 04:01:16;;;;;;;0.40;0.27;;;;;;;9.74;82.28;97768.28;5013156;28;20443;-72
2022/02/17 04:03:44;;;;;;;0.40;0.30;;;;;;;9.74;82.58;97791.78;5013444;28;20468;-72
2022/02/17 04:06:10;;;;;;;0.40;0.30;;;;;;;9.72;82.36;97778.66;5013497;28;20860;-72
2022/02/17 04:08:36;;;;;;;0.40;0.30;;;;;;;9.74;82.64;97795.28;5013032;28;21012;-72
2022/02/17 04:11:04;;;;;;;0.40;0.30;;;;;;;9.78;83.29;97795.31;5013391;28;20444;-72
2022/02/17 04:13:30;;;;;;;0.40;0.30;;;;;;;9.83;83.13;97797.75;5013294;28;20463;-72
2022/02/17 04:15:57;;;;;;;0.40;0.30;;;;;;;9.88;83.11;97810.16;5013353;28;20490;-72
2022/02/17 04:18:23;;;;;;;0.40;0.30;;;;;;;9.96;82.98;97823.41;5013380;28;20511;-72
2022/02/17 04:20:51;;;;;;;0.40;0.30;;;;;;;9.92;84.24;97824.50;5013620;28;20448;-72
2022/02/17 04:23:17;;;;;;;0.40;0.30;;;;;;;9.97;83.94;97827.69;5013219;28;20464;-72
2022/02/17 04:25:44;;;;;;;0.40;0.20;;;;;;;9.93;85.90;97845.00;5013286;28;20440;-72
2022/02/17 04:28:10;;;;;;;0.40;0.30;;;;;;;9.76;87.94;97865.19;5013200;28;20910;-71
2022/02/17 04:30:37;;;;;;;0.40;0.30;;;;;;;9.51;84.58;97889.09;5013217;28;20456;-71
2022/02/17 04:33:04;;;;;;;0.40;0.30;;;;;;;9.17;85.30;97934.81;5013132;28;20491;-73
2022/02/17 04:35:31;;;;;;;0.40;0.30;;;;;;;8.88;87.42;97911.09;5013173;28;20444;-73
2022/02/17 04:37:59;;;;;;;0.40;0.30;;;;;;;8.49;89.56;97900.28;5013166;28;20439;-74
2022/02/17 04:43:06;;;;;;;0.40;0.30;;;;;;;8.15;89.94;97886.44;5012409;28;20840;-72
2022/02/17 04:45:32;;;;;;;0.40;0.20;;;;;;;8.14;88.73;97894.84;5013042;28;20471;-73
2022/02/17 04:47:59;;;;;;;0.40;0.30;;;;;;;8.11;90.05;97895.56;5012653;28;21021;-73
2022/02/17 04:50:25;;;;;;;0.40;0.30;;;;;;;8.10;88.01;97919.03;5013012;28;20447;-73
2022/02/17 04:52:52;;;;;;;0.40;0.30;;;;;;;8.11;88.03;97926.00;5012932;28;20460;-73
2022/02/17 04:55:19;;;;;;;0.40;0.30;;;;;;;8.18;87.59;97930.75;5014448;28;20444;-73
2022/02/17 04:57:46;;;;;;;0.40;0.23;;;;;;;8.14;88.86;97909.09;5012680;28;20938;-73
2022/02/17 05:00:13;;;;;;;0.40;0.20;;;;;;;8.15;88.30;97929.56;5014066;28;20447;-72
2022/02/17 05:02:39;;;;;;;0.40;0.30;;;;;;;8.17;87.92;97940.00;5016182;28;20961;-72
2022/02/17 05:05:06;;;;;;;0.40;0.20;;;;;;;8.19;88.36;97945.81;5016156;28;20865;-72
2022/02/17 05:07:33;;;;;;;0.40;0.30;;;;;;;8.19;88.56;97932.31;5016351;28;20542;-72
2022/02/17 05:09:59;;;;;;;0.40;0.30;;;;;;;8.20;88.22;97923.91;5016406;28;20447;-72
2022/02/17 05:12:27;;;;;;;0.40;0.30;;;;;;;8.18;88.81;97928.84;5015944;28;20522;-72
2022/02/17 05:14:53;;;;;;;0.40;0.20;;;;;;;8.18;88.47;97923.44;5016285;28;20439;-72
2022/02/17 05:17:20;;;;;;;0.40;0.30;;;;;;;8.18;88.73;97934.25;5016223;28;20463;-72
2022/02/17 05:19:46;;;;;;;0.40;0.30;;;;;;;8.20;88.64;97958.97;5016212;28;20448;-72
2022/02/17 05:22:12;;;;;;;0.40;0.30;;;;;;;8.18;89.12;97942.34;5016075;28;20518;-72
2022/02/17 05:24:39;;;;;;;0.40;0.30;;;;;;;8.16;89.20;97936.53;5016094;28;20452;-72
2022/02/17 05:27:06;;;;;;;0.40;0.30;;;;;;;8.17;89.53;97945.38;5016036;28;20519;-72
2022/02/17 05:29:33;;;;;;;0.40;0.30;;;;;;;8.13;89.80;97939.91;5015981;28;20455;-72
2022/02/17 05:32:00;;;;;;;0.40;0.30;;;;;;;8.16;89.88;97931.13;5015889;28;20451;-75
2022/02/17 05:34:26;;;;;;;0.40;0.27;;;;;;;8.15;89.59;97934.19;5015893;28;20819;-71
2022/02/17 05:36:53;;;;;;;0.40;0.30;;;;;;;8.19;89.12;97957.41;5015532;28;20443;-72
2022/02/17 05:39:19;;;;;;;0.40;0.20;;;;;;;8.20;89.09;97928.53;5015435;28;20447;-75
2022/02/17 05:41:46;;;;;;;0.40;0.30;;;;;;;8.17;89.15;97946.16;5015309;28;20455;-73
2022/02/17 05:44:12;;;;;;;0.40;0.20;;;;;;;8.21;87.75;97938.94;5015035;28;20974;-71
2022/02/17 05:46:40;;;;;;;0.40;0.30;;;;;;;8.21;88.84;97928.16;5015325;28;20440;-70
2022/02/17 05:49:07;;;;;;;0.40;0.30;;;;;;;8.23;88.20;97928.56;5015558;28;20566;-74
2022/02/17 05:51:33;;;;;;;0.40;0.30;;;;;;;8.20;87.32;97923.91;5015538;28;20447;-73
2022/02/17 05:53:59;;;;;;;0.40;0.30;;;;;;;8.19;85.85;97926.94;5015520;28;20806;-76
2022/02/17 05:56:26;;;;;;;0.40;0.30;;;;;;;8.25;84.27;97928.25;5015236;28;20964;-74
2022/02/17 05:58:52;;;;;;;0.40;0.20;;;;;;;8.31;81.70;97933.00;5015437;28;20448;-71
2022/02/17 06:01:19;;;;;;;0.40;0.30;;;;;;;8.41;80.14;97926.34;5015092;28;20456;-72
2022/02/17 06:03:46;;;;;;;0.40;0.30;;;;;;;8.52;78.00;97948.13;5015227;28;20499;-71
2022/02/17 06:06:13;;;;;;;0.40;0.30;;;;;;;8.56;78.00;97935.50;5015036;28;20976;-72
2022/02/17 06:08:39;;;;;;;0.40;0.30;;;;;;;8.57;75.65;97923.56;5015207;28;20488;-73
2022/02/17 06:11:05;;;;;;;0.40;0.30;;;;;;;8.67;72.71;97944.59;5014992;28;20848;-72
2022/02/17 06:13:32;;;;;;;0.40;0.30;;;;;;;8.80;71.10;97946.03;5014959;28;20464;-72
2022/02/17 06:15:58;;;;;;;0.40;0.30;;;;;;;8.95;67.92;97989.53;5015149;28;20451;-72
2022/02/17 06:18:25;;;;;;;0.40;0.30;;;;;;;9.08;67.27;97967.44;5014813;28;20857;-72
2022/02/17 06:20:53;;;;;;;0.40;0.20;;;;;;;9.20;67.03;97963.81;5015046;28;20444;-72
2022/02/17 06:23:19;;;;;;;0.40;0.30;;;;;;;9.26;66.13;97977.81;5014927;28;20464;-72
2022/02/17 06:25:46;;;;;;;0.40;0.30;;;;;;;9.36;64.41;97963.72;5014595;28;20502;-72
2022/02/17 06:28:13;;;;;;;0.40;0.30;;;;;;;9.34;66.44;97982.19;5014532;28;21001;-73
2022/02/17 06:30:41;;;;;;;0.40;0.30;;;;;;;9.38;66.31;97993.84;5014846;28;20444;-72
2022/02/17 06:33:07;;;;;;;0.40;0.30;;;;;;;9.35;68.57;97998.06;5014748;28;20475;-73
2022/02/17 06:35:36;;;;;;;0.40;0.30;;;;;;;9.30;68.01;98019.97;5014728;28;20440;-73
2022/02/17 06:38:04;;;;;;;0.40;0.30;;;;;;;9.30;68.28;97998.34;5014875;28;20521;-73
2022/02/17 06:40:31;;;;;;;0.40;0.30;;;;;;;9.32;68.07;98004.19;5014660;28;20450;-72
2022/02/17 06:43:03;;;;;;;0.40;0.30;;;;;;;9.35;67.73;98016.19;5014590;28;20464;-73
2022/02/17 06:45:30;;;;;;;0.40;0.23;;;;;;;9.40;66.07;98002.41;5014618;28;20439;-72
2022/02/17 06:47:56;;;;;;;0.40;0.30;;;;;;;9.44;66.02;98003.25;5014521;28;20488;-72
2022/02/17 06:50:22;;;;;;;0.40;0.20;;;;;;;9.44;66.05;97997.06;5014154;28;20972;-72
2022/02/17 06:52:49;;;;;;;0.40;0.30;;;;;;;9.48;64.87;98025.72;5014359;28;20467;-73
2022/02/17 06:55:17;;;;;;;0.40;0.30;;;;;;;9.46;64.53;98002.88;5014367;28;20519;-73
2022/02/17 06:57:43;;;;;;;0.40;0.30;;;;;;;9.45;64.85;97998.63;5014390;28;20826;-73
2022/02/17 07:00:10;;;;;;;0.40;0.20;;;;;;;9.45;64.07;98010.22;5014233;28;20498;-72
2022/02/17 07:02:37;;;;;;;0.40;0.30;;;;;;;9.50;62.38;98014.53;5014258;28;20500;-72
2022/02/17 07:05:05;;;;;;;0.40;0.23;;;;;;;9.51;62.41;97995.25;5014233;28;20436;-73
2022/02/17 07:07:33;;;;;;;0.40;0.30;;;;;;;9.50;63.83;98011.84;5014141;28;20452;-72
2022/02/17 07:10:00;;;;;;;0.40;0.30;;;;;;;9.47;62.73;98042.28;5014197;28;20455;-72
2022/02/17 07:12:27;;;;;;;0.40;0.30;;;;;;;9.52;63.50;98031.97;5013652;28;20464;-73
2022/02/17 07:14:57;;;;;;;0.40;0.30;;;;;;;9.55;60.68;98038.56;5014086;28;20448;-73
2022/02/17 07:17:23;;;;;;;0.40;0.30;;;;;;;9.63;60.59;98037.56;5013992;28;20799;-72
2022/02/17 07:19:50;;;;;;;0.40;0.20;;;;;;;9.62;60.97;98060.34;5014013;28;20510;-72
2022/02/17 07:22:16;;;;;;;0.40;0.20;;;;;;;9.66;61.18;98023.34;5013881;28;20507;-72
2022/02/17 07:24:43;;;;;;;0.40;0.30;;;;;;;9.67;60.82;98024.13;5013162;28;20444;-72
2022/02/17 07:27:09;;;;;;;0.40;0.30;;;;;;;9.66;62.01;98009.84;5013599;28;21011;-72
2022/02/17 07:29:37;;;;;;;0.40;0.30;;;;;;;9.61;62.03;98023.66;5013767;28;20491;-73
2022/02/17 07:32:05;;;;;;;0.40;0.30;;;;;;;9.64;61.71;98049.94;5013729;28;20496;-72
2022/02/17 07:34:31;;;;;;;0.40;0.30;;;;;;;9.69;60.90;98046.16;5013687;28;20451;-72
2022/02/17 07:36:58;;;;;;;0.40;0.30;;;;;;;9.75;59.35;98034.72;5013739;28;20455;-72
2022/02/17 07:39:25;;;;;;;0.40;0.30;;;;;;;9.79;59.53;98068.00;5013648;28;20444;-72
2022/02/17 07:41:51;;;;;;;0.40;0.30;;;;;;;9.90;58.90;98046.56;5013605;28;20443;-73
2022/02/17 07:44:17;;;;;;;0.40;0.30;;;;;;;9.97;58.54;98054.81;5013703;28;20870;-72
2022/02/17 07:46:46;;;;;;;0.40;0.30;;;;;;;10.05;57.69;98061.16;5013366;28;20945;-73
2022/02/17 07:49:12;;;;;;;0.40;0.30;;;;;;;10.10;57.00;98044.63;5013498;28;20519;-73
2022/02/17 07:51:39;;;;;;;0.40;0.20;;;;;;;10.20;56.28;98029.69;5013517;28;20468;-72
2022/02/17 07:54:05;;;;;;;0.40;0.30;;;;;;;10.22;56.75;98047.13;5013449;28;20554;-70
2022/02/17 07:56:32;;;;;;;0.40;0.30;;;;;;;10.22;56.15;98035.53;5013202;28;20501;-71
2022/02/17 07:58:58;;;;;;;0.40;0.30;;;;;;;10.23;55.31;98064.94;5013533;28;20443;-71
2022/02/17 08:01:25;;;;;;;0.40;0.30;;;;;;;10.24;56.05;98058.41;5013119;28;20468;-72
2022/02/17 08:03:54;;;;;;;0.40;0.30;;;;;;;10.23;55.87;98097.41;5013404;28;20467;-72
2022/02/17 08:06:21;;;;;;;0.40;0.30;;;;;;;10.26;55.72;98080.47;5013390;28;20455;-71
2022/02/17 08:08:49;;;;;;;0.40;0.20;;;;;;;10.28;55.57;98080.91;5013329;28;20490;-71
2022/02/17 08:11:16;;;;;;;0.40;0.27;;;;;;;10.28;55.78;98080.13;5013296;28;20447;-71
2022/02/17 08:13:43;;;;;;;0.40;0.30;;;;;;;10.26;56.89;98080.47;5013159;28;20464;-71
2022/02/17 08:16:10;;;;;;;0.40;0.30;;;;;;;10.28;55.98;98078.19;5013302;28;20444;-71
2022/02/17 08:18:36;;;;;;;0.40;0.30;;;;;;;10.31;56.31;98098.31;5013175;28;20444;-70
2022/02/17 08:21:04;;;;;;;0.40;0.30;;;;;;;10.28;56.08;98107.94;5013328;28;20471;-70
2022/02/17 08:23:33;;;;;;;0.40;0.30;;;;;;;10.27;57.21;98111.81;5013186;28;20463;-72
2022/02/17 08:26:00;;;;;;;0.40;0.30;;;;;;;10.29;57.10;98122.25;5012630;28;20957;-71
2022/02/17 08:28:26;;;;;;;0.40;0.30;;;;;;;10.30;56.25;98108.34;5013124;28;20483;-74
2022/02/17 08:30:53;;;;;;;0.40;0.30;;;;;;;10.29;57.63;98109.50;5013203;28;20502;-71
2022/02/17 08:33:19;;;;;;;0.40;0.30;;;;;;;10.32;56.94;98089.09;5013031;28;20479;-73
2022/02/17 08:35:46;;;;;;;0.40;0.30;;;;;;;10.32;56.94;98110.72;5015302;28;20489;-73
2022/02/17 08:38:14;;;;;;;0.40;0.30;;;;;;;10.38;57.05;98105.78;5016978;28;20436;-73
2022/02/17 08:40:40;;;;;;;0.40;0.30;;;;;;;10.40;57.12;98128.63;5016605;28;20949;-72
2022/02/17 08:43:09;;;;;;;0.40;0.30;;;;;;;10.39;57.76;98156.06;5016790;28;20470;-70
2022/02/17 08:45:37;;;;;;;0.40;0.30;;;;;;;10.37;56.44;98134.78;5016873;28;20452;-71
2022/02/17 08:48:04;;;;;;;0.40;0.30;;;;;;;10.35;57.83;98154.06;5016754;28;20439;-71
2022/02/17 08:50:31;;;;;;;0.40;0.30;;;;;;;10.38;57.38;98173.44;5016798;28;20463;-72
2022/02/17 08:52:57;;;;;;;0.40;0.30;;;;;;;10.43;56.97;98148.78;5016604;28;20464;-73
2022/02/17 08:55:26;;;;;;;0.40;0.30;;;;;;;10.44;56.95;98126.00;5016672;28;20444;-72
2022/02/17 08:57:53;;;;;;;0.50;0.40;;;;;;;10.45;57.10;98143.81;5016544;28;20448;-71
2022/02/17 09:00:20;;;;;;;0.40;0.30;;;;;;;10.39;57.49;98180.41;5016411;28;20466;-72
2022/02/17 09:02:46;;;;;;;0.40;0.30;;;;;;;10.39;57.64;98164.94;5016183;28;20459;-74
2022/02/17 09:05:13;;;;;;;0.40;0.30;;;;;;;10.42;57.32;98198.66;5016197;28;20914;-71
2022/02/17 09:07:39;;;;;;;0.50;0.47;;;;;;;10.41;57.49;98207.91;5016416;28;20447;-72
2022/02/17 09:10:07;;;;;;;0.40;0.23;;;;;;;10.42;57.72;98194.00;5016239;28;20492;-71
2022/02/17 09:12:37;;;;;;;0.40;0.20;;;;;;;10.47;57.46;98242.44;5016308;28;20467;-73
2022/02/17 09:15:04;;;;;;;0.40;0.30;;;;;;;10.45;57.48;98233.13;5016653;28;20455;-72
2022/02/17 09:17:31;;;;;;;0.40;0.30;;;;;;;10.43;58.38;98214.50;5016260;28;20451;-74
2022/02/17 09:19:57;;;;;;;0.40;0.30;;;;;;;10.41;57.80;98243.88;5015936;28;20440;-74
2022/02/17 09:22:24;;;;;;;1.07;1.07;;;;;;;10.39;58.68;98234.53;5015798;28;20468;-74
2022/02/17 09:24:50;;;;;;;0.40;0.30;;;;;;;10.35;59.15;98237.16;5015567;28;20556;-72
2022/02/17 09:27:17;;;;;;;0.40;0.30;;;;;;;10.34;59.35;98263.44;5015712;28;20942;-72
2022/02/17 09:29:45;;;;;;;0.40;0.30;;;;;;;10.32;59.17;98257.63;5016062;28;20492;-72
2022/02/17 09:32:13;;;;;;;0.40;0.30;;;;;;;10.30;59.70;98259.09;5015894;28;20474;-73
2022/02/17 09:34:40;;;;;;;0.40;0.20;;;;;;;10.29;59.07;98290.00;5015641;28;20973;-71
2022/02/17 09:37:06;;;;;;;0.40;0.30;;;;;;;10.30;59.62;98289.63;5015879;28;20448;-71
2022/02/17 09:39:35;;;;;;;0.40;0.30;;;;;;;10.29;59.59;98274.56;5015184;28;20942;-71
2022/02/17 09:42:02;;;;;;;0.40;0.30;;;;;;;10.32;60.50;98300.91;5015017;28;20478;-74
2022/02/17 09:44:28;;;;;;;3.20;2.93;;;;;;;10.26;60.62;98313.13;5014774;28;20444;-71
2022/02/17 09:46:57;;;;;;;0.40;0.30;;;;;;;10.27;61.23;98328.25;5014226;28;20447;-74
2022/02/17 09:49:23;;;;;;;0.40;0.30;;;;;;;10.12;61.98;98361.50;5015000;28;20805;-72
2022/02/17 09:51:52;;;;;;;0.40;0.30;;;;;;;9.91;64.17;98361.00;5014953;28;20459;-72
2022/02/17 09:54:20;;;;;;;0.40;0.30;;;;;;;9.74;66.40;98356.75;5014969;28;20444;-73
2022/02/17 09:56:47;;;;;;;0.40;0.30;;;;;;;9.64;67.80;98336.44;5014833;28;20839;-72
2022/02/17 09:59:13;;;;;;;0.40;0.30;;;;;;;9.59;67.36;98394.25;5014927;28;20451;-71
2022/02/17 10:01:40;;;;;;;0.40;0.30;;;;;;;9.59;67.46;98378.03;5014691;28;20463;-73
2022/02/17 10:04:15;;;;;;;0.40;0.30;;;;;;;9.57;67.26;98385.72;5014638;28;20471;-73
2022/02/17 10:06:43;;;;;;;0.40;0.30;;;;;;;9.60;69.92;98392.31;5014951;28;20464;-72
2022/02/17 10:09:10;;;;;;;0.40;0.30;;;;;;;9.33;72.64;98402.84;5014636;28;20538;-72
2022/02/17 10:11:39;;;;;;;0.40;0.30;;;;;;;9.17;71.68;98417.47;5014702;28;20494;-73
2022/02/17 10:14:07;;;;;;;0.40;0.30;;;;;;;9.17;71.99;98422.88;5014553;28;20479;-72
2022/02/17 10:16:51;;;;;;;0.40;0.27;;;;;;;9.26;71.12;98428.91;5014277;28;20938;-72
2022/02/17 10:19:18;;;;;;;0.40;0.20;;;;;;;9.33;70.26;98445.28;5014507;28;20571;-72
2022/02/17 10:21:45;;;;;;;0.40;0.30;;;;;;;9.40;69.48;98448.19;5014364;28;20448;-74
2022/02/17 10:24:30;;;;;;;0.40;0.30;;;;;;;9.50;69.25;98436.88;5014334;28;20447;-73
2022/02/17 10:27:01;;;;;;;0.40;0.20;;;;;;;9.60;68.52;98489.63;5014401;28;20478;-72
2022/02/17 10:29:27;;;;;;;0.40;0.30;;;;;;;9.66;68.79;98469.34;5014309;28;20523;-72
2022/02/17 10:32:04;;;;;;;0.40;0.30;;;;;;;9.71;68.28;98431.22;5014401;28;20447;-71
2022/02/17 10:34:32;;;;;;;2.53;2.00;;;;;;;9.70;68.23;98577.56;5014287;28;20482;-72
2022/02/17 10:36:59;;;;;;;0.40;0.30;;;;;;;9.75;68.44;98515.13;5014156;28;20794;-72
2022/02/17 10:39:26;;;;;;;0.40;0.30;;;;;;;9.73;68.76;98504.66;5014231;28;20447;-72
2022/02/17 10:41:54;;;;;;;0.40;0.30;;;;;;;9.72;68.56;98483.38;5013964;28;20456;-73
2022/02/17 10:44:22;;;;;;;0.40;0.30;;;;;;;9.75;68.35;98491.59;5013997;28;20444;-72
2022/02/17 10:46:48;;;;;;;0.40;0.30;;;;;;;9.78;67.90;98539.56;5014008;28;20471;-72
2022/02/17 10:49:16;;;;;;;0.40;0.30;;;;;;;9.67;68.46;98529.59;5013649;28;21032;-74
2022/02/17 10:51:44;;;;;;;0.40;0.30;;;;;;;9.68;68.08;98521.13;5013959;28;20514;-73
2022/02/17 10:54:11;;;;;;;0.40;0.27;;;;;;;9.67;68.03;98524.97;5012731;28;20455;-72
2022/02/17 10:56:40;;;;;;;0.40;0.20;;;;;;;9.69;68.91;98528.09;5014095;28;20432;-74
2022/02/17 11:00:00;;;;;;;0.40;0.30;;;;;;;9.73;68.46;98522.78;5013684;28;20550;-73
2022/02/17 11:01:56;;;;;;;0.40;0.30;;;;;;;9.74;68.08;98563.00;5013161;28;20466;-72
2022/02/17 11:04:23;;;;;;;0.40;0.30;;;;;;;9.81;67.68;98546.19;5013938;28;20455;-72
2022/02/17 11:06:52;;;;;;;0.40;0.30;;;;;;;9.81;66.97;98560.47;5013538;28;20929;-73
2022/02/17 11:09:18;;;;;;;0.40;0.20;;;;;;;9.81;67.79;98592.94;5013518;28;20484;-73
2022/02/17 11:11:51;;;;;;;0.40;0.30;;;;;;;9.80;68.05;98587.88;5013690;28;20432;-72
2022/02/17 11:14:35;;;;;;;0.40;0.30;;;;;;;9.79;67.57;98595.22;5013552;28;20448;-73
2022/02/17 11:17:02;;;;;;;0.40;0.30;;;;;;;9.77;67.72;98586.63;5013410;28;20440;-71
2022/02/17 11:19:29;;;;;;;0.40;0.30;;;;;;;9.67;70.70;98603.34;5013369;28;20937;-72
2022/02/17 11:21:57;;;;;;;0.40;0.30;;;;;;;9.52;71.52;98599.47;5013397;28;20555;-73
2022/02/17 11:24:23;;;;;;;0.40;0.30;;;;;;;9.35;72.57;98607.84;5013519;28;20467;-73
2022/02/17 11:27:01;;;;;;;0.40;0.30;;;;;;;9.34;71.36;98604.38;5013112;28;20808;-73
2022/02/17 11:29:32;;;;;;;0.40;0.20;;;;;;;9.33;73.12;98618.97;5013343;28;20471;-73
2022/02/17 11:32:02;;;;;;;0.40;0.20;;;;;;;9.37;73.31;98643.41;5013436;28;20425;-73
2022/02/17 11:34:36;;;;;;;0.40;0.30;;;;;;;9.37;72.79;98665.03;5013371;28;20440;-73
2022/02/17 11:37:42;;;;;;;0.40;0.30;;;;;;;9.35;73.71;98637.56;5013299;28;20444;-72
2022/02/17 11:40:10;;;;;;;0.40;0.27;;;;;;;9.37;73.71;98650.72;5013174;28;20444;-74
2022/02/17 11:42:42;;;;;;;0.40;0.20;;;;;;;9.36;72.64;98660.75;5013492;28;20472;-73
2022/02/17 11:45:11;;;;;;;0.40;0.30;;;;;;;9.43;73.05;98682.59;5013202;28;20535;-73